Time;durP1;ratioP1;P1;durP2;ratioP2;P2;SDS_P1;SDS_P2;PMS_P1;PMS_P2;Temp;Humidity;BMP_temperature;BMP_pressure;BME280_temperature;BME280_humidity;BME280_pressure;Samples;Min_cycle;Max_cycle;Signal;HPM_P1;HPM_P2
2022/11/18 00:01:16;;;;;;;5.47;1.75;;;;;;;18.51;62.99;98577.97;5115353;28;20102;-70
2022/11/18 00:03:42;;;;;;;4.53;1.20;;;;;;;18.52;62.95;98582.31;5115466;28;20023;-71
2022/11/18 00:06:20;;;;;;;5.03;1.38;;;;;;;18.52;62.87;98572.59;5115255;28;20416;-70
2022/11/18 00:08:46;;;;;;;5.28;1.08;;;;;;;18.50;62.74;98571.81;5115469;28;20139;-70
2022/11/18 00:14:17;;;;;;;7.07;1.38;;;;;;;18.51;62.79;98573.50;5115229;28;20028;-70
2022/11/18 00:14:19;;;;;;;3.00;1.30;;;;;;;18.50;62.52;98574.47;5114627;28;20108;-69
2022/11/18 00:16:50;;;;;;;3.75;1.00;;;;;;;18.48;62.45;98579.00;5115276;28;20020;-70
2022/11/18 00:19:17;;;;;;;5.55;1.55;;;;;;;18.50;62.61;98577.09;5115286;28;20486;-70
2022/11/18 00:21:42;;;;;;;4.10;1.27;;;;;;;18.48;62.56;98576.38;5115092;28;20020;-70
2022/11/18 00:24:08;;;;;;;4.00;1.27;;;;;;;18.47;62.57;98585.25;5115117;28;20043;-70
2022/11/18 00:26:33;;;;;;;6.07;1.30;;;;;;;18.49;62.53;98582.47;5114484;28;20028;-70
2022/11/18 00:28:58;;;;;;;4.30;1.00;;;;;;;18.49;62.71;98585.13;5114609;28;20039;-70
2022/11/18 00:31:24;;;;;;;4.03;1.33;;;;;;;18.46;62.73;98580.88;5114824;28;20016;-70
2022/11/18 00:33:49;;;;;;;4.05;1.23;;;;;;;18.47;62.63;98582.59;5114791;28;20411;-70
2022/11/18 00:36:15;;;;;;;3.10;1.17;;;;;;;18.49;62.56;98583.34;5114646;28;20391;-70
2022/11/18 00:38:40;;;;;;;2.92;0.93;;;;;;;18.46;62.48;98577.41;5096567;28;20115;-70
2022/11/18 00:41:13;;;;;;;5.20;1.00;;;;;;;18.47;62.57;98581.75;5114167;28;20018;-70
2022/11/18 00:43:40;;;;;;;3.20;1.10;;;;;;;18.47;62.41;98577.31;5114863;28;20433;-70
2022/11/18 00:46:08;;;;;;;4.53;1.52;;;;;;;18.48;62.41;98572.88;5114454;28;20548;-70
2022/11/18 00:48:34;;;;;;;2.95;0.95;;;;;;;18.46;62.44;98578.25;5114574;28;20028;-70
2022/11/18 00:51:20;;;;;;;4.60;0.90;;;;;;;18.44;62.32;98576.69;5114487;28;20406;-71
2022/11/18 00:53:45;;;;;;;3.05;0.95;;;;;;;18.45;62.43;98579.19;5112443;28;20437;-71
2022/11/18 00:56:10;;;;;;;3.55;1.10;;;;;;;18.45;62.39;98579.19;5114170;28;20020;-70
2022/11/18 00:58:36;;;;;;;2.38;0.93;;;;;;;18.43;62.52;98575.81;5114203;28;20023;-70
2022/11/18 01:01:03;;;;;;;3.40;1.05;;;;;;;18.43;62.44;98581.09;5114376;28;20028;-70
2022/11/18 01:03:29;;;;;;;4.72;1.30;;;;;;;18.42;62.58;98589.13;5114348;28;20479;-70
2022/11/18 01:05:54;;;;;;;3.65;1.20;;;;;;;18.42;62.29;98589.97;5112893;28;20034;-70
2022/11/18 01:08:20;;;;;;;3.40;0.85;;;;;;;18.44;62.54;98585.44;5114252;28;20024;-69
2022/11/18 01:10:48;;;;;;;3.55;1.10;;;;;;;18.42;62.37;98589.13;5113702;28;20395;-69
2022/11/18 01:13:18;;;;;;;5.85;1.20;;;;;;;18.44;62.16;98606.56;5113923;28;20055;-71
2022/11/18 01:15:45;;;;;;;3.28;1.13;;;;;;;18.41;62.42;98596.22;5113785;28;20479;-70
2022/11/18 01:18:11;;;;;;;3.83;1.00;;;;;;;18.41;62.42;98604.13;5113975;28;20019;-71
2022/11/18 01:20:36;;;;;;;4.68;1.02;;;;;;;18.42;62.34;98603.19;5114011;28;20035;-70
2022/11/18 01:23:02;;;;;;;3.33;0.98;;;;;;;18.42;62.27;98610.25;5113765;28;20175;-70
2022/11/18 01:25:28;;;;;;;4.75;1.10;;;;;;;18.41;62.33;98609.41;5113516;28;20028;-70
2022/11/18 01:27:54;;;;;;;3.72;1.67;;;;;;;18.41;62.35;98609.41;5113763;28;20019;-70
2022/11/18 01:30:20;;;;;;;4.22;1.10;;;;;;;18.41;62.32;98614.69;5113724;28;20394;-68
2022/11/18 01:32:46;;;;;;;3.13;1.00;;;;;;;18.42;62.46;98611.09;5113911;28;20081;-71
2022/11/18 01:35:11;;;;;;;3.95;1.00;;;;;;;18.41;62.22;98614.69;5112103;28;20023;-71
2022/11/18 01:37:37;;;;;;;5.85;1.40;;;;;;;18.38;62.52;98625.44;5113315;28;20544;-69
2022/11/18 01:40:05;;;;;;;5.22;1.17;;;;;;;18.38;62.20;98625.44;5112754;28;20019;-70
2022/11/18 01:42:30;;;;;;;2.85;1.00;;;;;;;18.41;62.36;98625.28;5113313;28;20026;-70
2022/11/18 01:45:18;;;;;;;2.65;1.00;;;;;;;18.39;62.17;98621.84;5113416;28;20051;-70
2022/11/18 01:47:56;;;;;;;3.60;1.38;;;;;;;18.38;62.17;98630.72;5113203;28;20364;-70
2022/11/18 01:50:23;;;;;;;2.50;0.85;;;;;;;18.39;62.13;98627.13;5113418;28;20030;-69
2022/11/18 01:52:51;;;;;;;3.85;0.85;;;;;;;18.38;62.41;98636.00;5129206;27;20053;-70
2022/11/18 01:55:23;;;;;;;3.58;0.95;;;;;;;18.38;62.00;98636.00;5112836;28;20410;-69
2022/11/18 01:57:51;;;;;;;3.10;0.80;;;;;;;18.35;62.32;98637.06;5113160;28;20114;-70
2022/11/18 02:00:17;;;;;;;4.57;1.20;;;;;;;18.36;61.94;98637.91;5113396;28;20072;-70
2022/11/18 02:02:42;;;;;;;5.55;1.25;;;;;;;18.36;62.10;98637.91;5112968;28;20106;-70
2022/11/18 02:05:09;;;;;;;3.50;1.17;;;;;;;18.34;62.32;98639.78;5113087;28;20501;-70
2022/11/18 02:07:41;;;;;;;3.97;1.10;;;;;;;18.34;62.18;98629.22;5113125;28;20028;-68
2022/11/18 02:10:15;;;;;;;3.92;1.00;;;;;;;18.36;62.09;98632.63;5112945;28;20035;-71
2022/11/18 02:12:40;;;;;;;3.22;1.23;;;;;;;18.34;62.06;98642.41;5113196;28;20550;-70
2022/11/18 02:15:06;;;;;;;3.90;0.98;;;;;;;18.37;62.18;98652.81;5112789;28;20177;-70
2022/11/18 02:17:47;;;;;;;3.83;0.95;;;;;;;18.34;62.25;98642.41;5113202;28;20414;-71
2022/11/18 02:20:21;;;;;;;3.83;1.10;;;;;;;18.36;62.18;98643.19;5113138;28;20026;-71
2022/11/18 02:23:15;;;;;;;4.70;1.23;;;;;;;18.38;62.15;98641.28;5112716;28;20475;-71
2022/11/18 02:25:59;;;;;;;3.92;1.25;;;;;;;18.37;62.15;98644.88;5113062;28;20024;-70
2022/11/18 02:28:46;;;;;;;4.97;1.17;;;;;;;18.36;62.30;98635.28;5112653;28;20023;-70
2022/11/18 02:31:30;;;;;;;2.08;0.90;;;;;;;18.36;62.16;98638.75;5113025;28;20047;-69
2022/11/18 02:33:55;;;;;;;3.97;1.50;;;;;;;18.37;62.39;98635.16;5112679;28;20034;-71
2022/11/18 02:36:26;;;;;;;3.92;0.88;;;;;;;18.34;61.97;98639.78;5112793;28;20036;-71
2022/11/18 02:38:58;;;;;;;2.55;0.70;;;;;;;18.36;61.97;98643.19;5112545;28;20522;-70
2022/11/18 02:41:27;;;;;;;3.35;0.80;;;;;;;18.36;61.89;98648.47;5112876;28;20020;-70
2022/11/18 02:43:57;;;;;;;2.90;0.77;;;;;;;18.32;62.07;98649.59;5112748;28;20587;-69
2022/11/18 02:46:27;;;;;;;5.95;1.00;;;;;;;18.34;61.98;98647.69;5112836;28;20047;-70
2022/11/18 02:48:54;;;;;;;3.33;1.20;;;;;;;18.32;62.03;98653.09;5112817;28;20043;-70
2022/11/18 02:51:24;;;;;;;4.82;0.77;;;;;;;18.31;61.91;98655.84;5113784;28;20414;-70
2022/11/18 02:53:51;;;;;;;1.92;0.63;;;;;;;18.32;61.87;98641.69;5116639;28;20034;-70
2022/11/18 02:56:19;;;;;;;3.33;0.70;;;;;;;18.34;61.74;98642.41;5116717;28;20019;-70
2022/11/18 02:58:44;;;;;;;1.88;0.60;;;;;;;18.33;61.91;98638.09;5116750;28;20106;-70
2022/11/18 03:01:18;;;;;;;3.75;0.77;;;;;;;18.32;62.03;98639.91;5116542;28;20095;-70
2022/11/18 03:03:43;;;;;;;2.67;0.80;;;;;;;18.32;61.94;98644.31;5116546;28;20479;-70
2022/11/18 03:06:23;;;;;;;4.03;1.15;;;;;;;18.28;61.94;98643.66;5116303;28;20085;-70
2022/11/18 03:09:01;;;;;;;2.53;0.60;;;;;;;18.30;62.03;98638.31;5116603;28;20357;-70
2022/11/18 03:11:30;;;;;;;2.70;0.73;;;;;;;18.29;61.73;98637.44;5116556;28;20047;-70
2022/11/18 03:14:06;;;;;;;3.88;0.80;;;;;;;18.29;61.78;98633.94;5116125;28;20089;-70
2022/11/18 03:17:15;;;;;;;1.45;0.43;;;;;;;18.30;61.75;98643.59;5116159;28;20024;-69
2022/11/18 03:19:55;;;;;;;4.82;1.00;;;;;;;18.30;61.74;98631.22;5097445;28;20031;-71
2022/11/18 03:22:23;;;;;;;2.13;0.60;;;;;;;18.31;61.59;98634.72;5115852;28;20063;-70
2022/11/18 03:24:59;;;;;;;2.90;0.70;;;;;;;18.29;62.04;98626.00;5116069;28;20545;-70
2022/11/18 03:27:31;;;;;;;3.33;0.98;;;;;;;18.31;61.74;98629.44;5115948;28;20023;-71
2022/11/18 03:30:03;;;;;;;2.47;0.60;;;;;;;18.28;61.91;98629.59;5116113;28;20399;-71
2022/11/18 03:32:32;;;;;;;3.17;0.60;;;;;;;18.27;61.87;98627.91;5115928;28;20028;-71
2022/11/18 03:35:22;;;;;;;3.90;0.70;;;;;;;18.28;61.51;98635.75;5115598;28;20032;-69
2022/11/18 03:37:51;;;;;;;2.83;0.93;;;;;;;18.27;61.62;98643.75;5115858;28;20027;-70
2022/11/18 03:40:21;;;;;;;3.50;0.95;;;;;;;18.26;62.00;98637.66;5115947;28;20039;-71
2022/11/18 03:42:52;;;;;;;3.15;0.60;;;;;;;18.28;61.73;98645.44;5115793;28;20031;-71
2022/11/18 03:45:24;;;;;;;3.20;1.08;;;;;;;18.26;61.82;98642.94;5115814;28;20027;-71
2022/11/18 03:47:59;;;;;;;4.45;0.80;;;;;;;18.27;61.75;98641.13;5115754;28;20028;-70
2022/11/18 03:50:33;;;;;;;4.10;1.20;;;;;;;18.25;61.49;98642.06;5115445;28;20644;-70
2022/11/18 03:53:01;;;;;;;2.47;0.60;;;;;;;18.23;61.64;98643.97;5115588;28;20339;-70
2022/11/18 03:55:32;;;;;;;3.83;1.13;;;;;;;18.24;61.54;98647.44;5115425;28;20026;-70
2022/11/18 03:58:00;;;;;;;2.60;0.47;;;;;;;18.22;61.79;98647.53;5097328;28;20030;-69
2022/11/18 04:00:31;;;;;;;3.95;0.77;;;;;;;18.24;61.64;98650.94;5115500;28;20024;-70
2022/11/18 04:02:57;;;;;;;2.92;0.70;;;;;;;18.22;61.56;98647.53;5114843;28;20027;-69
2022/11/18 04:05:22;;;;;;;3.30;0.98;;;;;;;18.23;61.82;98649.25;5115032;28;20027;-70
2022/11/18 04:08:21;;;;;;;4.65;0.95;;;;;;;18.22;61.95;98647.53;5115411;28;20020;-70
2022/11/18 04:11:04;;;;;;;3.20;0.60;;;;;;;18.19;61.66;98647.72;5115200;28;20032;-68
2022/11/18 04:13:34;;;;;;;2.08;0.43;;;;;;;18.17;61.83;98647.00;5115252;28;20046;-71
2022/11/18 04:15:59;;;;;;;2.70;0.63;;;;;;;18.23;61.75;98646.59;5115072;28;20023;-70
2022/11/18 04:18:26;;;;;;;2.45;0.68;;;;;;;18.21;61.73;98645.84;5114838;28;20019;-70
2022/11/18 04:20:51;;;;;;;2.28;0.52;;;;;;;18.20;61.59;98644.16;5114835;28;20026;-70
2022/11/18 04:23:17;;;;;;;3.28;0.90;;;;;;;18.19;61.89;98645.09;5114812;28;20016;-70
2022/11/18 04:25:42;;;;;;;2.33;0.65;;;;;;;18.20;61.43;98649.44;5115000;28;20515;-70
2022/11/18 04:28:07;;;;;;;2.60;0.65;;;;;;;18.21;61.50;98656.41;5115129;28;20487;-70
2022/11/18 04:30:33;;;;;;;3.30;0.80;;;;;;;18.18;61.83;98648.69;5115004;28;20506;-71
2022/11/18 04:32:59;;;;;;;2.92;0.80;;;;;;;18.19;61.53;98646.88;5096326;28;20039;-70
2022/11/18 04:35:26;;;;;;;2.20;0.70;;;;;;;18.15;61.47;98656.78;5114660;28;20372;-70
2022/11/18 04:37:51;;;;;;;2.55;0.63;;;;;;;18.19;61.45;98652.16;5114851;28;20574;-70
2022/11/18 04:40:17;;;;;;;3.90;0.82;;;;;;;18.17;61.48;98648.78;5114714;28;20118;-70
2022/11/18 04:42:42;;;;;;;2.08;0.70;;;;;;;18.17;61.56;98644.34;5114531;28;20027;-70
2022/11/18 04:45:08;;;;;;;1.42;0.57;;;;;;;18.18;61.76;98646.03;5114633;28;20080;-70
2022/11/18 04:47:34;;;;;;;2.83;0.80;;;;;;;18.17;61.64;98649.63;5113946;28;20065;-70
2022/11/18 04:49:59;;;;;;;2.30;0.50;;;;;;;18.16;61.85;98650.56;5114498;28;20031;-69
2022/11/18 04:52:25;;;;;;;2.40;0.70;;;;;;;18.16;61.64;98642.63;5114641;28;20032;-69
2022/11/18 04:54:50;;;;;;;1.63;0.77;;;;;;;18.15;61.46;98650.66;5114457;28;20059;-70
2022/11/18 04:57:15;;;;;;;2.40;0.57;;;;;;;18.17;61.41;98649.63;5114279;28;20051;-70
2022/11/18 04:59:41;;;;;;;2.20;0.77;;;;;;;18.16;61.68;98653.19;5114167;28;20024;-69
2022/11/18 05:02:06;;;;;;;2.17;0.60;;;;;;;18.17;61.58;98644.34;5113925;28;20020;-70
2022/11/18 05:04:33;;;;;;;3.40;0.70;;;;;;;18.15;61.40;98646.22;5114111;28;20028;-70
2022/11/18 05:07:00;;;;;;;3.92;1.00;;;;;;;18.17;61.61;98648.78;5114286;28;20084;-69
2022/11/18 05:09:25;;;;;;;2.30;0.80;;;;;;;18.16;61.62;98647.91;5114167;28;20031;-71
2022/11/18 05:14:35;;;;;;;2.45;0.80;;;;;;;18.17;61.50;98647.00;5113076;28;20482;-70
2022/11/18 05:17:03;;;;;;;2.35;0.50;;;;;;;18.15;61.20;98646.22;5113502;28;20024;-70
2022/11/18 05:19:29;;;;;;;3.85;0.65;;;;;;;18.16;61.47;98641.81;5114128;27;20020;-70
2022/11/18 05:21:55;;;;;;;1.63;0.50;;;;;;;18.15;61.26;98640.94;5113924;28;20030;-70
2022/11/18 05:24:22;;;;;;;3.05;0.77;;;;;;;18.15;61.28;98646.22;5113919;28;20027;-70
2022/11/18 05:26:48;;;;;;;3.40;0.70;;;;;;;18.13;61.57;98647.25;5113807;28;20023;-70
2022/11/18 05:29:14;;;;;;;2.58;0.70;;;;;;;18.13;61.63;98650.75;5113632;28;20502;-69
2022/11/18 05:31:39;;;;;;;3.03;0.73;;;;;;;18.11;61.46;98649.97;5113106;28;20103;-70
2022/11/18 05:34:04;;;;;;;2.47;0.50;;;;;;;18.13;61.45;98653.41;5113720;28;20032;-70
2022/11/18 05:36:30;;;;;;;3.85;1.10;;;;;;;18.14;61.27;98655.09;5113200;28;20062;-70
2022/11/18 05:38:59;;;;;;;2.42;0.70;;;;;;;18.12;61.27;98667.53;5113714;28;20028;-70
2022/11/18 05:44:08;;;;;;;1.83;0.60;;;;;;;18.14;61.53;98681.50;5113606;28;20034;-70
2022/11/18 05:46:33;;;;;;;4.30;1.00;;;;;;;18.14;61.35;98681.50;5113188;28;20023;-70
2022/11/18 05:48:58;;;;;;;3.60;0.90;;;;;;;18.14;61.64;98676.22;5113421;28;20410;-69
2022/11/18 05:51:24;;;;;;;3.80;0.80;;;;;;;18.12;61.50;98683.38;5113420;28;20028;-70
2022/11/18 05:53:51;;;;;;;2.03;0.60;;;;;;;18.11;61.45;98679.88;5113151;28;20023;-71
2022/11/18 05:56:27;;;;;;;2.72;0.93;;;;;;;18.13;61.36;98682.44;5112596;28;20023;-68
2022/11/18 05:58:52;;;;;;;2.50;0.80;;;;;;;18.13;61.43;98679.81;5092441;28;20491;-65
2022/11/18 06:01:25;;;;;;;4.55;1.00;;;;;;;18.15;61.14;98688.47;5092086;28;20035;-66
2022/11/18 06:03:51;;;;;;;2.83;1.13;;;;;;;18.12;61.48;98691.31;5101157;28;20034;-65
2022/11/18 06:06:20;;;;;;;3.70;0.90;;;;;;;18.11;61.24;98692.22;5092776;28;20048;-65
2022/11/18 06:08:53;;;;;;;3.03;0.68;;;;;;;18.14;61.38;98694.69;5107938;28;20024;-65
2022/11/18 06:11:20;;;;;;;2.42;0.68;;;;;;;18.13;61.12;98689.50;5111836;28;20103;-65
2022/11/18 06:13:53;;;;;;;2.20;0.60;;;;;;;18.12;61.24;98693.94;5092544;28;20077;-65
2022/11/18 06:16:23;;;;;;;2.70;0.52;;;;;;;18.10;61.42;98691.41;5092475;28;20043;-66
2022/11/18 06:18:49;;;;;;;2.63;0.70;;;;;;;18.14;61.38;98707.91;5092784;28;20510;-65
2022/11/18 06:21:14;;;;;;;2.10;0.52;;;;;;;18.11;61.11;98713.34;5092609;28;20048;-65
2022/11/18 06:23:41;;;;;;;2.17;0.70;;;;;;;18.05;61.20;98708.41;5092488;28;20379;-64
2022/11/18 06:26:08;;;;;;;4.78;0.93;;;;;;;18.04;61.10;98718.13;5092272;28;20040;-66
2022/11/18 06:28:35;;;;;;;1.73;0.40;;;;;;;18.06;61.31;98724.19;5092551;28;20028;-65
2022/11/18 06:31:00;;;;;;;2.30;0.63;;;;;;;18.08;61.21;98726.75;5092406;28;20111;-65
2022/11/18 06:33:25;;;;;;;1.38;0.47;;;;;;;18.07;61.34;98732.97;5092639;28;20553;-65
2022/11/18 06:35:51;;;;;;;3.05;0.50;;;;;;;18.04;61.12;98722.56;5095676;28;20023;-66
2022/11/18 06:38:16;;;;;;;1.00;0.50;;;;;;;18.05;61.10;98726.88;5112971;28;20559;-65
2022/11/18 06:40:43;;;;;;;2.50;0.40;;;;;;;18.04;61.32;98733.13;5112475;28;20028;-65
2022/11/18 06:48:43;;;;;;;2.13;0.98;;;;;;;18.02;61.09;98729.72;5112195;28;20387;-65
2022/11/18 06:51:08;;;;;;;2.72;0.50;;;;;;;18.04;61.04;98733.13;5092521;28;20206;-66
2022/11/18 06:53:34;;;;;;;2.70;0.50;;;;;;;18.02;61.02;98727.09;5092592;28;20048;-65
2022/11/18 06:56:03;;;;;;;2.35;0.57;;;;;;;18.01;61.24;98728.03;5092448;28;20032;-65
2022/11/18 06:58:29;;;;;;;3.00;0.38;;;;;;;17.99;61.16;98730.75;5092129;28;20024;-65
2022/11/18 07:00:54;;;;;;;1.83;0.50;;;;;;;17.99;61.27;98730.75;5092275;28;20027;-65
2022/11/18 07:03:20;;;;;;;1.60;0.60;;;;;;;18.01;61.26;98733.31;5092403;28;20430;-65
2022/11/18 07:05:45;;;;;;;2.95;0.57;;;;;;;18.00;61.04;98736.91;5092372;28;20408;-65
2022/11/18 07:08:10;;;;;;;2.50;0.70;;;;;;;17.98;61.33;98737.81;5092360;28;20020;-65
2022/11/18 07:10:36;;;;;;;1.77;0.50;;;;;;;18.01;61.18;98746.53;5092295;28;20016;-65
2022/11/18 07:13:01;;;;;;;4.78;0.70;;;;;;;17.96;60.94;98752.91;5091763;28;20901;-66
2022/11/18 07:15:26;;;;;;;2.22;0.40;;;;;;;17.97;61.27;98754.59;5099016;28;20590;-66
2022/11/18 07:17:52;;;;;;;2.20;0.57;;;;;;;17.98;61.37;98758.09;5111905;28;20027;-65
2022/11/18 07:20:17;;;;;;;2.00;0.60;;;;;;;17.96;60.95;98763.47;5111938;28;20098;-65
2022/11/18 07:22:43;;;;;;;4.20;0.70;;;;;;;17.96;61.01;98774.03;5111861;28;20032;-66
2022/11/18 07:25:09;;;;;;;2.42;0.73;;;;;;;17.96;61.00;98771.38;5111864;28;20065;-65
2022/11/18 07:27:34;;;;;;;2.10;0.50;;;;;;;17.96;60.94;98779.31;5111499;28;20081;-65
2022/11/18 07:29:59;;;;;;;2.47;0.50;;;;;;;17.97;61.09;98781.00;5111887;28;20098;-65
2022/11/18 07:32:25;;;;;;;2.28;0.63;;;;;;;17.96;60.90;98787.22;5111062;28;20023;-65
2022/11/18 07:34:50;;;;;;;2.05;0.57;;;;;;;17.97;61.00;98796.84;5103309;28;20078;-65
2022/11/18 07:37:15;;;;;;;2.20;0.70;;;;;;;17.93;60.93;98790.03;5107156;28;20093;-65
2022/11/18 07:39:41;;;;;;;1.77;0.50;;;;;;;17.97;60.99;98785.44;5114692;28;20031;-66
2022/11/18 07:42:08;;;;;;;1.90;0.40;;;;;;;17.96;60.82;98792.50;5111993;28;20080;-66
2022/11/18 07:44:33;;;;;;;1.52;0.50;;;;;;;17.94;61.17;98802.31;5109419;28;20032;-65
2022/11/18 07:46:58;;;;;;;0.70;0.40;;;;;;;17.93;60.78;98805.88;5114508;28;20111;-65
2022/11/18 07:49:24;;;;;;;2.38;0.70;;;;;;;17.92;60.88;98804.19;5115682;28;20016;-66
2022/11/18 07:51:49;;;;;;;3.33;0.80;;;;;;;17.93;61.28;98805.88;5115850;28;20072;-65
2022/11/18 07:54:17;;;;;;;2.88;0.63;;;;;;;17.93;60.92;98800.59;5115791;28;20028;-65
2022/11/18 07:56:43;;;;;;;3.00;0.70;;;;;;;17.88;60.87;98800.03;5115480;28;20028;-65
2022/11/18 07:59:09;;;;;;;1.95;0.57;;;;;;;17.90;61.04;98806.06;5115708;28;20102;-65
2022/11/18 08:01:34;;;;;;;2.40;0.68;;;;;;;17.90;60.83;98802.56;5115721;28;20449;-65
2022/11/18 08:04:05;;;;;;;2.50;0.50;;;;;;;17.88;61.14;98809.72;5108826;28;20016;-65
2022/11/18 08:06:32;;;;;;;1.38;0.55;;;;;;;17.87;61.01;98811.50;5100188;28;20039;-65
2022/11/18 08:08:58;;;;;;;2.35;0.82;;;;;;;17.85;61.11;98813.41;5095146;28;20016;-65
2022/11/18 08:11:23;;;;;;;4.20;1.00;;;;;;;17.86;61.00;98825.66;5094864;28;20012;-66
2022/11/18 08:13:50;;;;;;;2.47;0.73;;;;;;;17.83;60.87;98825.84;5076700;28;20036;-65
2022/11/18 08:16:22;;;;;;;2.05;0.50;;;;;;;17.87;61.08;98834.44;5101257;28;20065;-65
2022/11/18 08:18:48;;;;;;;2.10;0.70;;;;;;;17.86;60.88;98836.22;5114828;28;20113;-64
2022/11/18 08:21:14;;;;;;;2.50;0.60;;;;;;;17.84;61.28;98843.38;5114679;28;20085;-65
2022/11/18 08:23:40;;;;;;;4.07;0.70;;;;;;;17.85;60.94;98840.66;5114582;28;20023;-65
2022/11/18 08:26:12;;;;;;;1.60;0.60;;;;;;;17.87;61.18;98842.34;5096469;28;20118;-65
2022/11/18 08:28:39;;;;;;;3.10;0.82;;;;;;;17.86;61.00;98841.50;5114485;28;20043;-65
2022/11/18 08:31:09;;;;;;;2.35;0.73;;;;;;;17.87;61.08;98847.63;5115056;28;20027;-65
2022/11/18 08:33:35;;;;;;;1.90;0.57;;;;;;;17.86;61.33;98846.75;5114678;28;20027;-65
2022/11/18 08:36:13;;;;;;;2.60;0.60;;;;;;;17.85;60.96;98845.06;5114612;28;20100;-65
2022/11/18 08:38:39;;;;;;;1.98;0.60;;;;;;;17.85;61.16;98850.34;5114487;28;20031;-65
2022/11/18 08:41:06;;;;;;;2.72;0.85;;;;;;;17.81;61.31;98844.41;5113749;28;20072;-65
2022/11/18 08:43:35;;;;;;;1.48;0.52;;;;;;;17.81;61.17;98844.41;5114249;28;20047;-66
2022/11/18 08:46:00;;;;;;;1.95;0.70;;;;;;;17.84;61.45;98843.38;5114209;28;20053;-65
2022/11/18 08:48:26;;;;;;;4.30;0.90;;;;;;;17.85;61.47;98848.56;5114375;28;20559;-66
2022/11/18 08:50:51;;;;;;;3.08;0.77;;;;;;;17.83;61.55;98842.50;5114429;28;20023;-66
2022/11/18 08:53:17;;;;;;;2.67;0.60;;;;;;;17.85;61.17;98845.06;5114626;28;20031;-65
2022/11/18 08:55:42;;;;;;;2.45;0.80;;;;;;;17.84;61.42;98846.00;5114137;28;20050;-65
2022/11/18 08:58:08;;;;;;;2.22;0.50;;;;;;;17.84;61.29;98848.66;5114430;28;20031;-65
2022/11/18 09:00:33;;;;;;;2.58;0.70;;;;;;;17.83;61.22;98841.69;5114305;28;20074;-65
2022/11/18 09:02:58;;;;;;;2.40;0.80;;;;;;;17.83;61.20;98841.69;5114515;28;20027;-65
2022/11/18 09:05:24;;;;;;;2.95;0.50;;;;;;;17.84;61.47;98848.66;5114458;28;20023;-65
2022/11/18 09:07:49;;;;;;;2.20;0.60;;;;;;;17.84;61.47;98848.66;5114407;28;20031;-65
2022/11/18 09:10:15;;;;;;;4.57;0.60;;;;;;;17.86;61.47;98854.69;5114065;28;20114;-65
2022/11/18 09:12:40;;;;;;;1.85;0.68;;;;;;;17.85;61.20;98860.91;5114261;28;20100;-65
2022/11/18 09:15:07;;;;;;;2.78;0.80;;;;;;;17.85;61.13;98858.25;5095720;28;20043;-65
2022/11/18 09:17:33;;;;;;;2.20;0.60;;;;;;;17.86;61.06;98857.31;5114236;28;20382;-65
2022/11/18 09:19:58;;;;;;;2.63;0.68;;;;;;;17.87;61.36;98864.28;5114111;28;20103;-66
2022/11/18 09:22:24;;;;;;;3.47;0.70;;;;;;;17.88;61.13;98866.03;5114144;28;20034;-65
2022/11/18 09:24:49;;;;;;;2.92;1.00;;;;;;;17.88;61.44;98871.31;5113578;28;20471;-65
2022/11/18 09:27:14;;;;;;;3.80;0.77;;;;;;;17.88;61.21;98866.03;5114159;28;20023;-65
2022/11/18 09:29:40;;;;;;;2.92;0.80;;;;;;;17.90;61.03;98871.19;5114060;28;20027;-65
2022/11/18 09:32:05;;;;;;;3.05;0.60;;;;;;;17.89;61.24;98873.00;5114057;28;20024;-65
2022/11/18 09:34:33;;;;;;;2.03;0.73;;;;;;;17.87;60.98;98874.84;5113855;28;20555;-65
2022/11/18 09:37:05;;;;;;;4.35;1.13;;;;;;;17.91;61.09;98870.28;5113738;28;20030;-66
2022/11/18 09:39:32;;;;;;;2.42;0.68;;;;;;;17.91;61.20;98868.47;5113466;28;20443;-65
2022/11/18 09:42:30;;;;;;;3.90;0.70;;;;;;;17.90;61.28;98869.41;5113657;28;20042;-66
2022/11/18 09:45:25;;;;;;;2.53;0.57;;;;;;;17.89;61.01;98866.84;5101156;28;20036;-65
2022/11/18 09:47:54;;;;;;;3.67;0.77;;;;;;;17.91;61.50;98865.81;5109279;28;20043;-64
2022/11/18 09:50:22;;;;;;;2.70;1.08;;;;;;;17.91;61.33;98871.09;5113517;28;20089;-65
2022/11/18 09:53:05;;;;;;;2.95;0.63;;;;;;;17.92;61.22;98871.97;5113282;28;20042;-65
2022/11/18 09:55:36;;;;;;;2.05;0.60;;;;;;;17.93;60.97;98873.66;5113421;28;20031;-66
2022/11/18 09:58:04;;;;;;;3.63;1.00;;;;;;;17.89;61.01;98878.28;5095195;28;20122;-65
2022/11/18 10:00:30;;;;;;;1.77;0.43;;;;;;;17.93;61.14;98882.41;5113006;28;20028;-65
2022/11/18 10:03:21;;;;;;;3.15;0.63;;;;;;;17.94;61.38;98884.16;5113429;28;20027;-65
2022/11/18 10:06:08;;;;;;;3.80;0.95;;;;;;;17.93;61.06;98874.50;5113332;28;20612;-65
2022/11/18 10:09:04;;;;;;;3.30;1.13;;;;;;;17.92;61.11;98872.81;5112972;28;20151;-65
2022/11/18 10:11:48;;;;;;;2.63;0.80;;;;;;;17.93;61.26;98868.38;5100273;28;20050;-65
2022/11/18 10:14:27;;;;;;;5.10;1.00;;;;;;;17.93;60.93;98873.66;5112904;28;20048;-65
2022/11/18 10:17:19;;;;;;;2.53;0.65;;;;;;;17.96;61.28;98878.75;5113144;28;20080;-66
2022/11/18 10:19:53;;;;;;;2.17;0.70;;;;;;;17.92;60.97;98875.44;5113182;28;20068;-65
2022/11/18 10:22:33;;;;;;;3.25;0.80;;;;;;;17.93;61.23;98868.38;5112888;28;20036;-65
2022/11/18 10:25:01;;;;;;;4.20;1.13;;;;;;;17.94;61.26;98872.72;5112959;28;20433;-65
2022/11/18 10:27:38;;;;;;;3.15;0.90;;;;;;;17.92;61.15;98867.53;5113189;28;20020;-65
2022/11/18 10:30:13;;;;;;;2.47;0.70;;;;;;;17.94;61.25;98865.66;5113093;28;20476;-65
2022/11/18 10:33:17;;;;;;;2.35;0.45;;;;;;;17.93;61.19;98869.22;5113040;28;20023;-65
2022/11/18 10:35:42;;;;;;;4.07;1.60;;;;;;;17.93;61.04;98861.31;5112365;28;20045;-65
2022/11/18 10:38:14;;;;;;;1.95;0.68;;;;;;;17.95;61.13;98866.50;5113027;28;20019;-65
2022/11/18 10:41:09;;;;;;;2.97;0.65;;;;;;;17.98;61.13;98867.16;5113040;28;20094;-65
2022/11/18 10:43:41;;;;;;;2.33;0.70;;;;;;;17.96;61.33;98863.78;5092575;28;20028;-66
2022/11/18 10:46:26;;;;;;;3.28;0.85;;;;;;;17.98;61.08;98861.88;5092628;28;20569;-65
2022/11/18 10:49:16;;;;;;;2.15;0.55;;;;;;;17.94;61.45;98855.09;5092690;28;20024;-66
2022/11/18 10:51:47;;;;;;;3.28;0.63;;;;;;;17.98;61.35;98856.59;5084156;28;20044;-65
2022/11/18 10:54:19;;;;;;;1.55;0.60;;;;;;;17.96;61.16;98858.50;5092496;28;20020;-65
2022/11/18 10:57:07;;;;;;;4.82;0.95;;;;;;;18.00;61.18;98848.59;5092656;28;20024;-66
2022/11/18 10:59:40;;;;;;;2.80;0.95;;;;;;;18.00;61.07;98850.41;5092558;28;20488;-65
2022/11/18 11:02:15;;;;;;;2.67;1.00;;;;;;;18.00;61.33;98848.59;5092513;28;20086;-66
2022/11/18 11:04:42;;;;;;;1.75;0.50;;;;;;;18.02;61.39;98845.88;5092143;28;20054;-65
2022/11/18 11:07:36;;;;;;;1.25;0.52;;;;;;;18.02;61.16;98843.25;5092368;28;20047;-66
2022/11/18 11:10:04;;;;;;;3.33;0.60;;;;;;;18.01;61.21;98838.91;5090440;28;20078;-65
2022/11/18 11:12:47;;;;;;;3.60;0.80;;;;;;;18.05;61.31;98845.69;5092295;28;20039;-66
2022/11/18 11:15:21;;;;;;;5.07;0.85;;;;;;;18.02;61.16;98836.16;5102543;28;20039;-66
2022/11/18 11:20:42;;;;;;;3.50;0.75;;;;;;;18.05;61.18;98824.56;5116229;28;20442;-66
2022/11/18 11:23:13;;;;;;;3.00;0.90;;;;;;;18.02;61.30;98819.50;5098200;28;20019;-66
2022/11/18 11:25:50;;;;;;;2.83;0.95;;;;;;;18.02;61.35;98814.22;5116353;28;20058;-65
2022/11/18 11:28:29;;;;;;;1.73;0.60;;;;;;;18.01;61.18;98804.59;5116302;28;20114;-65
2022/11/18 11:31:03;;;;;;;2.40;0.88;;;;;;;18.02;61.44;98801.00;5116550;28;20514;-66
2022/11/18 11:33:35;;;;;;;4.82;1.05;;;;;;;18.01;61.47;98794.03;5116043;28;20051;-65
2022/11/18 11:36:10;;;;;;;4.40;0.70;;;;;;;17.98;61.34;98787.97;5116018;28;20471;-65
2022/11/18 11:38:47;;;;;;;2.40;0.70;;;;;;;18.04;61.10;98788.56;5116168;28;20430;-66
2022/11/18 11:41:22;;;;;;;2.78;0.82;;;;;;;18.06;61.42;98789.38;5115940;28;20039;-66
2022/11/18 11:44:14;;;;;;;2.25;0.73;;;;;;;18.03;61.23;98790.38;5115871;28;20023;-66
2022/11/18 11:50:12;;;;;;;3.22;0.65;;;;;;;18.04;61.04;98764.78;5115598;28;20064;-65
2022/11/18 11:53:15;;;;;;;4.15;1.00;;;;;;;18.03;61.23;98769.25;5115935;28;20031;-65
2022/11/18 11:55:49;;;;;;;2.78;0.90;;;;;;;18.01;61.33;98765.00;5115739;28;20024;-65
2022/11/18 11:58:36;;;;;;;1.77;0.77;;;;;;;18.02;61.41;98758.78;5115911;28;20110;-66
2022/11/18 12:01:12;;;;;;;3.58;0.88;;;;;;;18.04;61.14;98756.88;5115679;28;20488;-65
2022/11/18 12:03:49;;;;;;;2.85;0.90;;;;;;;18.05;61.22;98758.56;5097094;28;20485;-66
2022/11/18 12:06:15;;;;;;;4.63;0.77;;;;;;;18.03;61.13;98763.09;5115642;28;20032;-65